Time;durP1;ratioP1;P1;durP2;ratioP2;P2;SDS_P1;SDS_P2;PMS_P1;PMS_P2;Temp;Humidity;BMP_temperature;BMP_pressure;BME280_temperature;BME280_humidity;BME280_pressure;Samples;Min_cycle;Max_cycle;Signal;HPM_P1;HPM_P2
2022/07/13 00:00:46;;;;;;;3.22;2.40;;;;;;;;;;4991312;28;98817;-61
2022/07/13 00:03:13;;;;;;;2.22;2.10;;;;;;;;;;4991350;28;99404;-61
2022/07/13 00:05:39;;;;;;;2.20;2.10;;;;;;;;;;4989861;28;99679;-61
2022/07/13 00:08:06;;;;;;;2.50;2.30;;;;;;;;;;4991331;28;98862;-62
2022/07/13 00:10:32;;;;;;;2.55;2.33;;;;;;;;;;4991001;28;102191;-62
2022/07/13 00:12:59;;;;;;;2.50;2.30;;;;;;;;;;4990437;28;99630;-62
2022/07/13 00:15:25;;;;;;;2.35;2.15;;;;;;;;;;4990605;28;98500;-61
2022/07/13 00:17:51;;;;;;;2.30;2.10;;;;;;;;;;4990891;28;99257;-62
2022/07/13 00:20:18;;;;;;;2.90;2.40;;;;;;;;;;4993150;28;99507;-62
2022/07/13 00:22:44;;;;;;;2.30;2.10;;;;;;;;;;4989492;28;100250;-61
2022/07/13 00:25:10;;;;;;;2.55;2.35;;;;;;;;;;4990380;28;99669;-61
2022/07/13 00:27:36;;;;;;;2.45;2.30;;;;;;;;;;4991320;28;97866;-63
2022/07/13 00:30:03;;;;;;;2.40;2.20;;;;;;;;;;4990912;28;98768;-61
2022/07/13 00:32:29;;;;;;;2.38;2.17;;;;;;;;;;4988902;28;99595;-62
2022/07/13 00:34:55;;;;;;;2.42;2.22;;;;;;;;;;4990193;28;99418;-62
2022/07/13 00:37:22;;;;;;;3.88;2.35;;;;;;;;;;4990707;28;100908;-62
2022/07/13 00:39:48;;;;;;;2.22;2.13;;;;;;;;;;4990126;28;100057;-62
2022/07/13 00:42:14;;;;;;;2.58;2.47;;;;;;;;;;4993877;28;98551;-62
2022/07/13 00:44:41;;;;;;;2.47;2.28;;;;;;;;;;4989900;28;99890;-62
2022/07/13 00:47:07;;;;;;;2.78;2.50;;;;;;;;;;4990632;28;98518;-62
2022/07/13 00:49:33;;;;;;;2.83;2.45;;;;;;;;;;4990529;28;99213;-62
2022/07/13 00:52:00;;;;;;;2.53;2.33;;;;;;;;;;4990485;28;99791;-61
2022/07/13 00:54:29;;;;;;;2.70;2.42;;;;;;;;;;4990100;28;98525;-61
2022/07/13 00:56:56;;;;;;;2.70;2.50;;;;;;;;;;4990240;28;99308;-62
2022/07/13 00:59:23;;;;;;;3.00;2.20;;;;;;;;;;4989731;28;101323;-62
2022/07/13 01:01:49;;;;;;;3.38;2.45;;;;;;;;;;4990448;28;99119;-61
2022/07/13 01:04:16;;;;;;;2.55;2.42;;;;;;;;;;4992632;28;98480;-62
2022/07/13 01:06:42;;;;;;;4.00;2.67;;;;;;;;;;4990010;28;98575;-62
2022/07/13 01:09:08;;;;;;;2.80;2.60;;;;;;;;;;4989072;28;100643;-62
2022/07/13 01:11:35;;;;;;;2.88;2.58;;;;;;;;;;4989830;28;100502;-62
2022/07/13 01:14:01;;;;;;;2.55;2.35;;;;;;;;;;4990346;28;98515;-61
2022/07/13 01:16:28;;;;;;;3.25;2.45;;;;;;;;;;4990816;28;99555;-62
2022/07/13 01:18:54;;;;;;;2.53;2.33;;;;;;;;;;4992924;28;100421;-62
2022/07/13 01:21:21;;;;;;;2.33;2.22;;;;;;;;;;4993934;28;98556;-62
2022/07/13 01:23:47;;;;;;;2.50;2.40;;;;;;;;;;4993254;28;100230;-62
2022/07/13 01:26:14;;;;;;;3.20;2.90;;;;;;;;;;4996611;28;99691;-62
2022/07/13 01:28:40;;;;;;;2.72;2.53;;;;;;;;;;4993262;28;99331;-62
2022/07/13 01:31:06;;;;;;;2.65;2.55;;;;;;;;;;4993122;28;99562;-62
2022/07/13 01:33:33;;;;;;;2.67;2.47;;;;;;;;;;4992206;28;98638;-62
2022/07/13 01:35:59;;;;;;;2.65;2.45;;;;;;;;;;4993463;28;99360;-62
2022/07/13 01:38:26;;;;;;;2.58;2.38;;;;;;;;;;4993164;28;99589;-62
2022/07/13 01:40:52;;;;;;;2.95;2.67;;;;;;;;;;4993771;28;97962;-62
2022/07/13 01:43:23;;;;;;;2.53;2.30;;;;;;;;;;4993456;28;98507;-61
2022/07/13 01:45:49;;;;;;;2.97;2.67;;;;;;;;;;4995878;28;99699;-62
2022/07/13 01:48:15;;;;;;;2.95;2.72;;;;;;;;;;4991995;28;99177;-62
2022/07/13 01:50:42;;;;;;;2.53;2.33;;;;;;;;;;4992522;28;99537;-62
2022/07/13 01:53:08;;;;;;;3.75;2.47;;;;;;;;;;4993122;28;98814;-62
2022/07/13 01:55:34;;;;;;;2.70;2.50;;;;;;;;;;4992699;28;99242;-61
2022/07/13 01:58:01;;;;;;;3.83;2.97;;;;;;;;;;4992727;28;100627;-62
2022/07/13 02:00:27;;;;;;;2.72;2.53;;;;;;;;;;4992800;28;98466;-61
2022/07/13 02:02:53;;;;;;;2.20;2.10;;;;;;;;;;4992775;28;100256;-62
2022/07/13 02:05:20;;;;;;;2.65;2.47;;;;;;;;;;4991876;28;99875;-62
2022/07/13 02:07:47;;;;;;;2.80;2.60;;;;;;;;;;4995994;28;98590;-61
2022/07/13 02:10:13;;;;;;;2.67;2.47;;;;;;;;;;4992709;28;99719;-62
2022/07/13 02:12:40;;;;;;;2.70;2.50;;;;;;;;;;4992255;28;99288;-62
2022/07/13 02:15:07;;;;;;;2.67;2.47;;;;;;;;;;4992732;28;100420;-61
2022/07/13 02:17:34;;;;;;;2.75;2.55;;;;;;;;;;4991082;28;99588;-62
2022/07/13 02:20:01;;;;;;;2.97;2.67;;;;;;;;;;4992251;28;98551;-62
2022/07/13 02:22:38;;;;;;;2.60;2.40;;;;;;;;;;4992605;28;99219;-62
2022/07/13 02:25:05;;;;;;;3.10;2.90;;;;;;;;;;4992137;28;99723;-62
2022/07/13 02:27:32;;;;;;;2.85;2.60;;;;;;;;;;4992580;28;98423;-61
2022/07/13 02:29:58;;;;;;;2.92;2.72;;;;;;;;;;4994456;28;99385;-61
2022/07/13 02:32:24;;;;;;;2.58;2.35;;;;;;;;;;4992651;28;98538;-62
2022/07/13 02:34:50;;;;;;;2.85;2.65;;;;;;;;;;4992567;28;100221;-62
2022/07/13 02:37:17;;;;;;;3.20;2.78;;;;;;;;;;4991851;28;99286;-61
2022/07/13 02:39:43;;;;;;;2.88;2.58;;;;;;;;;;4992397;28;98503;-62
2022/07/13 02:42:09;;;;;;;2.63;2.45;;;;;;;;;;4992546;28;99260;-62
2022/07/13 02:44:36;;;;;;;2.58;2.40;;;;;;;;;;4991897;28;100765;-61
2022/07/13 02:47:02;;;;;;;3.13;2.50;;;;;;;;;;4992456;28;98676;-62
2022/07/13 02:49:28;;;;;;;2.85;2.65;;;;;;;;;;4991969;28;99616;-61
2022/07/13 02:51:54;;;;;;;2.45;2.35;;;;;;;;;;4995149;28;99842;-61
2022/07/13 02:54:22;;;;;;;2.70;2.50;;;;;;;;;;4992622;28;99578;-62
2022/07/13 02:56:48;;;;;;;3.00;2.80;;;;;;;;;;4991648;28;99759;-61
2022/07/13 02:59:14;;;;;;;3.25;2.55;;;;;;;;;;4991745;28;98668;-62
2022/07/13 03:01:40;;;;;;;2.30;2.20;;;;;;;;;;4991196;28;99481;-61
2022/07/13 03:04:07;;;;;;;2.97;2.63;;;;;;;;;;4991267;28;99890;-62
2022/07/13 03:06:33;;;;;;;2.58;2.38;;;;;;;;;;4991906;28;98596;-61
2022/07/13 03:08:59;;;;;;;3.00;2.70;;;;;;;;;;4991916;28;99644;-62
2022/07/13 03:11:26;;;;;;;2.50;2.40;;;;;;;;;;4991889;28;99473;-63
2022/07/13 03:13:52;;;;;;;2.35;2.25;;;;;;;;;;4995057;28;98517;-61
2022/07/13 03:16:18;;;;;;;2.65;2.45;;;;;;;;;;4991194;28;99738;-61
2022/07/13 03:18:45;;;;;;;2.75;2.55;;;;;;;;;;4992270;28;98114;-61
2022/07/13 03:21:12;;;;;;;2.90;2.70;;;;;;;;;;4991708;28;98796;-61
2022/07/13 03:23:38;;;;;;;3.25;2.70;;;;;;;;;;4991381;28;99615;-61
2022/07/13 03:26:05;;;;;;;2.92;2.72;;;;;;;;;;4990629;28;99290;-62
2022/07/13 03:28:32;;;;;;;3.00;2.70;;;;;;;;;;4991718;28;100262;-62
2022/07/13 03:30:58;;;;;;;2.83;2.63;;;;;;;;;;4991392;28;99837;-62
2022/07/13 03:33:24;;;;;;;3.10;2.50;;;;;;;;;;4991546;28;98560;-61
2022/07/13 03:35:51;;;;;;;2.47;2.28;;;;;;;;;;4994911;28;99206;-62
2022/07/13 03:38:17;;;;;;;2.65;2.45;;;;;;;;;;4991408;28;98481;-61
2022/07/13 03:40:43;;;;;;;2.80;2.60;;;;;;;;;;4989692;28;98952;-62
2022/07/13 03:43:09;;;;;;;2.42;2.33;;;;;;;;;;4991317;28;98943;-62
2022/07/13 03:45:36;;;;;;;2.80;2.60;;;;;;;;;;4991524;28;98562;-62
2022/07/13 03:48:02;;;;;;;2.60;2.40;;;;;;;;;;4991249;28;99241;-62
2022/07/13 03:50:28;;;;;;;2.63;2.50;;;;;;;;;;4990366;28;100539;-61
2022/07/13 03:52:55;;;;;;;2.70;2.50;;;;;;;;;;4991314;28;98477;-61
2022/07/13 03:55:22;;;;;;;2.50;2.40;;;;;;;;;;4993753;28;99008;-61
2022/07/13 03:57:48;;;;;;;2.55;2.40;;;;;;;;;;4991603;28;98436;-61
2022/07/13 04:00:15;;;;;;;3.72;2.50;;;;;;;;;;4990856;28;99214;-62
2022/07/13 04:02:41;;;;;;;2.88;2.67;;;;;;;;;;4990391;28;98551;-61
2022/07/13 04:05:08;;;;;;;2.70;2.50;;;;;;;;;;4991023;28;98567;-61
2022/07/13 04:07:38;;;;;;;2.40;2.30;;;;;;;;;;4991735;28;99339;-61
2022/07/13 04:10:05;;;;;;;2.90;2.65;;;;;;;;;;4990317;28;99600;-63
2022/07/13 04:12:31;;;;;;;2.20;2.10;;;;;;;;;;4991372;28;98569;-61
2022/07/13 04:14:58;;;;;;;3.60;2.67;;;;;;;;;;4990771;28;100190;-62
2022/07/13 04:17:24;;;;;;;3.70;2.95;;;;;;;;;;4993591;28;99612;-61
2022/07/13 04:19:50;;;;;;;2.70;2.50;;;;;;;;;;4990358;28;99518;-62
2022/07/13 04:22:17;;;;;;;2.63;2.40;;;;;;;;;;4990831;28;101990;-62
2022/07/13 04:24:43;;;;;;;2.45;2.35;;;;;;;;;;4990810;28;98455;-62
2022/07/13 04:27:09;;;;;;;3.28;2.47;;;;;;;;;;4990875;28;100615;-61
2022/07/13 04:29:36;;;;;;;2.63;2.42;;;;;;;;;;4989476;28;100289;-62
2022/07/13 04:32:02;;;;;;;2.70;2.50;;;;;;;;;;4991283;28;98109;-62
2022/07/13 04:34:28;;;;;;;2.85;2.53;;;;;;;;;;4990847;28;98473;-61
2022/07/13 04:36:55;;;;;;;2.70;2.50;;;;;;;;;;4990265;28;101518;-62
2022/07/13 04:39:21;;;;;;;2.67;2.47;;;;;;;;;;4993816;28;99258;-62
2022/07/13 04:41:47;;;;;;;2.83;2.63;;;;;;;;;;4989607;28;99968;-62
2022/07/13 04:44:14;;;;;;;2.60;2.40;;;;;;;;;;4990752;28;98533;-61
2022/07/13 04:46:40;;;;;;;2.70;2.50;;;;;;;;;;4990600;28;99233;-62
2022/07/13 04:49:06;;;;;;;3.15;2.90;;;;;;;;;;4990484;28;100475;-62
2022/07/13 04:51:34;;;;;;;2.47;2.38;;;;;;;;;;4992117;28;98514;-61
2022/07/13 04:54:00;;;;;;;3.63;2.55;;;;;;;;;;4994138;28;99165;-62
2022/07/13 04:56:27;;;;;;;2.50;2.40;;;;;;;;;;4993753;28;98663;-61
2022/07/13 04:58:53;;;;;;;2.72;2.53;;;;;;;;;;4993957;28;98503;-62
2022/07/13 05:01:19;;;;;;;5.22;3.00;;;;;;;;;;4996929;28;100483;-61
2022/07/13 05:03:52;;;;;;;2.42;2.17;;;;;;;;;;4993427;28;99206;-62
2022/07/13 05:06:19;;;;;;;4.43;2.47;;;;;;;;;;4993576;28;100292;-62
2022/07/13 05:08:45;;;;;;;3.53;2.70;;;;;;;;;;4993293;28;99500;-62
2022/07/13 05:11:11;;;;;;;2.67;2.47;;;;;;;;;;4993507;28;99183;-62
2022/07/13 05:13:38;;;;;;;3.08;2.42;;;;;;;;;;4993860;28;99202;-62
2022/07/13 05:16:04;;;;;;;2.78;2.58;;;;;;;;;;4993018;28;99525;-61
2022/07/13 05:18:30;;;;;;;2.58;2.38;;;;;;;;;;4993383;28;98647;-62
2022/07/13 05:20:57;;;;;;;2.47;2.30;;;;;;;;;;4994172;28;99170;-62
2022/07/13 05:23:23;;;;;;;3.45;2.60;;;;;;;;;;4996766;28;100020;-62
2022/07/13 05:25:49;;;;;;;3.33;2.90;;;;;;;;;;4993501;28;99629;-61
2022/07/13 05:28:16;;;;;;;2.58;2.38;;;;;;;;;;4992577;28;101007;-61
2022/07/13 05:30:42;;;;;;;2.70;2.50;;;;;;;;;;4993874;28;98482;-61
2022/07/13 05:33:08;;;;;;;2.70;2.50;;;;;;;;;;4993443;28;100440;-62
2022/07/13 05:35:35;;;;;;;2.83;2.63;;;;;;;;;;4993271;28;99684;-61
2022/07/13 05:38:01;;;;;;;2.80;2.60;;;;;;;;;;4993287;28;98509;-62
2022/07/13 05:40:27;;;;;;;2.55;2.35;;;;;;;;;;4993447;28;98394;-61
2022/07/13 05:42:54;;;;;;;2.88;2.50;;;;;;;;;;4993103;28;100861;-61
2022/07/13 05:45:20;;;;;;;2.85;2.65;;;;;;;;;;4997019;28;97735;-62
2022/07/13 05:47:47;;;;;;;2.60;2.45;;;;;;;;;;4992729;28;99721;-61
2022/07/13 05:50:14;;;;;;;2.70;2.50;;;;;;;;;;4993277;28;98458;-62
2022/07/13 05:52:40;;;;;;;2.80;2.60;;;;;;;;;;4992878;28;100224;-61
2022/07/13 05:55:07;;;;;;;5.88;2.70;;;;;;;;;;4993067;28;100541;-62
2022/07/13 05:57:34;;;;;;;2.35;2.25;;;;;;;;;;4992934;28;98486;-62
2022/07/13 06:00:00;;;;;;;3.28;2.70;;;;;;;;;;4993229;28;100510;-62
2022/07/13 06:02:26;;;;;;;2.13;2.03;;;;;;;;;;4991607;28;99680;-62
2022/07/13 06:04:53;;;;;;;2.80;2.60;;;;;;;;;;4996317;28;98502;-62
2022/07/13 06:07:19;;;;;;;2.85;2.65;;;;;;;;;;4992729;28;100531;-62
2022/07/13 06:09:45;;;;;;;3.30;2.42;;;;;;;;;;4993266;28;97815;-62
2022/07/13 06:12:11;;;;;;;4.32;2.38;;;;;;;;;;4992968;28;98528;-62
2022/07/13 06:14:38;;;;;;;3.00;2.67;;;;;;;;;;4992645;28;100570;-61
2022/07/13 06:17:04;;;;;;;2.80;2.60;;;;;;;;;;4991849;28;99258;-61
2022/07/13 06:19:30;;;;;;;2.90;2.70;;;;;;;;;;4992386;28;99947;-62
2022/07/13 06:21:57;;;;;;;2.92;2.70;;;;;;;;;;4992508;28;100522;-62
2022/07/13 06:24:24;;;;;;;3.05;2.85;;;;;;;;;;4992983;28;98505;-62
2022/07/13 06:26:50;;;;;;;3.25;2.65;;;;;;;;;;4995580;28;100255;-62
2022/07/13 06:29:16;;;;;;;3.38;2.60;;;;;;;;;;4992979;28;98502;-62
2022/07/13 06:31:43;;;;;;;2.80;2.55;;;;;;;;;;4991143;28;99280;-61
2022/07/13 06:34:09;;;;;;;6.47;3.10;;;;;;;;;;4992502;28;98807;-62
2022/07/13 06:36:38;;;;;;;2.72;2.55;;;;;;;;;;4992075;28;98519;-62
2022/07/13 06:39:05;;;;;;;2.50;2.30;;;;;;;;;;4992539;28;99146;-62
2022/07/13 06:41:31;;;;;;;2.65;2.45;;;;;;;;;;4991470;28;100245;-61
2022/07/13 06:43:57;;;;;;;2.83;2.38;;;;;;;;;;4992465;28;98570;-62
2022/07/13 06:46:24;;;;;;;2.78;2.58;;;;;;;;;;4992010;28;100194;-62
2022/07/13 06:48:52;;;;;;;2.63;2.42;;;;;;;;;;4995330;28;100579;-62
2022/07/13 06:51:18;;;;;;;2.95;2.50;;;;;;;;;;4992499;28;99309;-62
2022/07/13 06:53:44;;;;;;;3.10;2.50;;;;;;;;;;4991609;28;99920;-62
2022/07/13 06:56:11;;;;;;;3.28;2.63;;;;;;;;;;4992009;28;98522;-62
2022/07/13 06:58:37;;;;;;;2.60;2.40;;;;;;;;;;4991199;28;99168;-62
2022/07/13 07:01:04;;;;;;;3.03;2.72;;;;;;;;;;4991685;28;99549;-62
2022/07/13 07:03:30;;;;;;;4.15;2.67;;;;;;;;;;4992047;28;98490;-61
2022/07/13 07:05:58;;;;;;;2.45;2.35;;;;;;;;;;4991548;28;99584;-62
2022/07/13 07:08:24;;;;;;;2.97;2.67;;;;;;;;;;4991398;28;99574;-62
2022/07/13 07:10:50;;;;;;;2.90;2.60;;;;;;;;;;4995111;28;98600;-61
2022/07/13 07:13:17;;;;;;;3.03;2.08;;;;;;;;;;4991214;28;99523;-61
2022/07/13 07:15:43;;;;;;;2.70;2.30;;;;;;;;;;4990406;28;99263;-62
2022/07/13 07:18:09;;;;;;;2.72;2.53;;;;;;;;;;4991784;28;100458;-62
2022/07/13 07:20:36;;;;;;;2.47;2.20;;;;;;;;;;4991287;28;99492;-62
2022/07/13 07:23:03;;;;;;;2.97;2.58;;;;;;;;;;4992160;28;97783;-62
2022/07/13 07:25:30;;;;;;;3.38;2.40;;;;;;;;;;4991716;28;98621;-61
2022/07/13 07:27:56;;;;;;;3.33;2.58;;;;;;;;;;4990690;28;99540;-62
2022/07/13 07:30:22;;;;;;;3.13;2.28;;;;;;;;;;4991264;28;99363;-61
2022/07/13 07:32:49;;;;;;;2.33;2.22;;;;;;;;;;4994294;28;100323;-62
2022/07/13 07:35:23;;;;;;;2.47;2.20;;;;;;;;;;5142004;27;86439;-63
2022/07/13 07:37:49;;;;;;;3.65;2.47;;;;;;;;;;5117617;27;86568;-63
2022/07/13 07:40:15;;;;;;;2.92;2.30;;;;;;;;;;5117455;27;88420;-63
2022/07/13 07:42:42;;;;;;;2.72;2.25;;;;;;;;;;5117417;27;87517;-62
2022/07/13 07:45:08;;;;;;;3.38;2.50;;;;;;;;;;5115476;27;87911;-62
2022/07/13 07:47:35;;;;;;;2.53;2.33;;;;;;;;;;5096612;27;87504;-63
2022/07/13 07:50:01;;;;;;;2.40;2.30;;;;;;;;;;5096563;27;87635;-63
2022/07/13 07:52:28;;;;;;;2.53;2.33;;;;;;;;;;5096440;27;88216;-63
2022/07/13 07:55:14;;;;;;;2.75;2.20;;;;;;;;;;5099687;27;87707;-63
2022/07/13 07:57:45;;;;;;;2.13;2.03;;;;;;;;;;5096213;27;87834;-62
2022/07/13 08:00:12;;;;;;;2.30;2.20;;;;;;;;;;5096879;27;88372;-63
2022/07/13 08:02:38;;;;;;;2.40;2.20;;;;;;;;;;5096252;27;86884;-63
2022/07/13 08:05:05;;;;;;;2.40;2.20;;;;;;;;;;5078042;27;87725;-63
2022/07/13 08:07:31;;;;;;;2.30;2.10;;;;;;;;;;5096205;27;87002;-63
2022/07/13 08:09:57;;;;;;;2.22;2.03;;;;;;;;;;5096147;27;87642;-63
2022/07/13 08:12:24;;;;;;;2.70;2.35;;;;;;;;;;5096061;27;87442;-63
2022/07/13 08:14:50;;;;;;;2.72;2.10;;;;;;;;;;5096471;27;88350;-63
2022/07/13 08:17:17;;;;;;;3.08;2.60;;;;;;;;;;5119228;27;87551;-63
2022/07/13 08:19:43;;;;;;;1.95;1.85;;;;;;;;;;5117309;27;88736;-62
2022/07/13 08:22:10;;;;;;;2.70;2.47;;;;;;;;;;5117062;27;88477;-63
2022/07/13 08:24:36;;;;;;;2.33;2.22;;;;;;;;;;5116934;27;88037;-62
2022/07/13 08:27:02;;;;;;;2.40;2.20;;;;;;;;;;5116526;27;87678;-62
2022/07/13 08:29:28;;;;;;;2.30;2.20;;;;;;;;;;5116736;27;86661;-63
2022/07/13 08:31:55;;;;;;;2.30;2.10;;;;;;;;;;5116844;27;88957;-62
2022/07/13 08:39:51;;;;;;;2.75;1.92;;;;;;;;;;5107684;27;87853;-63
2022/07/13 08:42:17;;;;;;;2.20;2.10;;;;;;;;;;5095703;27;87768;-63
2022/07/13 08:44:43;;;;;;;3.17;2.20;;;;;;;;;;5093778;27;87631;-62
2022/07/13 08:47:10;;;;;;;2.78;2.10;;;;;;;;;;5081972;27;87182;-63
2022/07/13 08:49:36;;;;;;;2.22;2.13;;;;;;;;;;5063561;27;87379;-63
2022/07/13 08:52:03;;;;;;;2.63;2.15;;;;;;;;;;5081767;27;87940;-64
2022/07/13 08:54:29;;;;;;;2.20;2.00;;;;;;;;;;5081745;27;87856;-63
2022/07/13 08:56:56;;;;;;;2.53;2.00;;;;;;;;;;5081377;27;87552;-63
2022/07/13 08:59:22;;;;;;;2.33;2.10;;;;;;;;;;5081388;27;87688;-63
2022/07/13 09:01:49;;;;;;;2.50;2.30;;;;;;;;;;5084514;27;87298;-62
2022/07/13 09:04:15;;;;;;;2.53;2.33;;;;;;;;;;5081715;27;88920;-62
2022/07/13 09:06:43;;;;;;;2.85;1.95;;;;;;;;;;5081433;27;87838;-62
2022/07/13 09:09:33;;;;;;;2.25;2.03;;;;;;;;;;5081892;27;88347;-64
2022/07/13 09:12:23;;;;;;;1.92;1.83;;;;;;;;;;5081733;27;87542;-63
2022/07/13 09:14:52;;;;;;;2.50;2.20;;;;;;;;;;5063101;27;86777;-63
2022/07/13 09:17:33;;;;;;;1.90;1.80;;;;;;;;;;5081604;27;87723;-64
2022/07/13 09:20:19;;;;;;;3.05;1.80;;;;;;;;;;5081332;27;87932;-63
2022/07/13 09:23:01;;;;;;;1.88;1.77;;;;;;;;;;5081369;27;87432;-62
2022/07/13 09:25:28;;;;;;;2.05;1.95;;;;;;;;;;5084219;27;86647;-62
2022/07/13 09:27:55;;;;;;;2.67;2.28;;;;;;;;;;5081172;27;87284;-63
2022/07/13 09:30:23;;;;;;;2.10;2.00;;;;;;;;;;5081261;27;87389;-62
2022/07/13 09:32:53;;;;;;;2.20;2.00;;;;;;;;;;5081040;27;88050;-63
2022/07/13 09:35:21;;;;;;;4.18;2.33;;;;;;;;;;5081403;27;87903;-63
2022/07/13 09:37:47;;;;;;;2.10;2.00;;;;;;;;;;5081167;27;87610;-63
2022/07/13 09:40:17;;;;;;;2.30;2.20;;;;;;;;;;5081532;27;89020;-63
2022/07/13 09:42:43;;;;;;;;;;;;;;;;;;5081878;27;89490;-63
2022/07/13 09:47:56;;;;;;;1.60;1.50;;;;;;;;;;5083615;27;86584;-63
2022/07/13 09:50:24;;;;;;;2.17;1.98;;;;;;;;;;5081441;27;88685;-62
2022/07/13 09:52:52;;;;;;;2.00;1.90;;;;;;;;;;5081047;27;88964;-63
2022/07/13 09:55:20;;;;;;;1.92;1.80;;;;;;;;;;5081114;27;88795;-63
2022/07/13 09:57:48;;;;;;;2.22;2.10;;;;;;;;;;5078957;27;88033;-63
2022/07/13 10:00:25;;;;;;;1.98;1.80;;;;;;;;;;5081179;27;89521;-62
2022/07/13 10:02:52;;;;;;;2.22;2.03;;;;;;;;;;5080378;27;87531;-63
2022/07/13 10:05:19;;;;;;;2.15;1.85;;;;;;;;;;5081017;27;88598;-63
2022/07/13 10:07:47;;;;;;;1.80;1.70;;;;;;;;;;5083440;27;86772;-63
2022/07/13 10:10:15;;;;;;;1.90;1.80;;;;;;;;;;5081221;27;87887;-63
2022/07/13 10:12:42;;;;;;;2.28;2.08;;;;;;;;;;5080621;27;88303;-63
2022/07/13 10:15:10;;;;;;;2.15;2.03;;;;;;;;;;5081012;27;88431;-63
2022/07/13 10:17:37;;;;;;;2.40;1.85;;;;;;;;;;5080565;27;86712;-63
2022/07/13 10:20:13;;;;;;;1.83;1.73;;;;;;;;;;5080257;27;88108;-62
2022/07/13 10:22:42;;;;;;;3.20;2.22;;;;;;;;;;5080308;27;87162;-62
2022/07/13 10:25:09;;;;;;;2.92;1.80;;;;;;;;;;5080225;27;87321;-63
2022/07/13 10:27:36;;;;;;;2.40;1.77;;;;;;;;;;5080722;27;88746;-63
2022/07/13 10:30:03;;;;;;;1.90;1.75;;;;;;;;;;5083690;27;88148;-62
2022/07/13 10:32:30;;;;;;;2.33;1.70;;;;;;;;;;5080947;27;87976;-63
2022/07/13 10:34:58;;;;;;;2.33;2.08;;;;;;;;;;5080124;27;88665;-63
2022/07/13 10:37:26;;;;;;;1.65;1.55;;;;;;;;;;5080427;27;88361;-62
2022/07/13 10:40:12;;;;;;;2.00;1.80;;;;;;;;;;5080500;27;88975;-62
2022/07/13 10:42:57;;;;;;;2.33;1.80;;;;;;;;;;5080544;27;88716;-63
2022/07/13 10:45:33;;;;;;;1.85;1.75;;;;;;;;;;5080770;27;88491;-63
2022/07/13 10:48:00;;;;;;;1.88;1.77;;;;;;;;;;5061799;27;88268;-63
2022/07/13 10:50:28;;;;;;;1.85;1.75;;;;;;;;;;5080019;27;86763;-63
2022/07/13 10:52:54;;;;;;;1.92;1.80;;;;;;;;;;5082814;27;88128;-63
2022/07/13 10:55:50;;;;;;;2.33;1.98;;;;;;;;;;5080007;27;87269;-63
2022/07/13 10:58:31;;;;;;;1.88;1.73;;;;;;;;;;5079937;27;87519;-63
2022/07/13 11:00:59;;;;;;;2.10;1.90;;;;;;;;;;5079877;27;86760;-63
2022/07/13 11:03:37;;;;;;;1.77;1.67;;;;;;;;;;5079337;27;87242;-63
2022/07/13 11:06:14;;;;;;;1.90;1.70;;;;;;;;;;5079826;27;87313;-63
2022/07/13 11:08:42;;;;;;;1.80;1.70;;;;;;;;;;5078927;27;87734;-64
2022/07/13 11:11:11;;;;;;;2.40;1.88;;;;;;;;;;5080232;27;88361;-63
2022/07/13 11:13:37;;;;;;;1.73;1.63;;;;;;;;;;5079668;27;87707;-64
2022/07/13 11:16:05;;;;;;;1.92;1.77;;;;;;;;;;5068622;27;87523;-62
2022/07/13 11:18:33;;;;;;;4.55;1.70;;;;;;;;;;5082974;27;87842;-63
2022/07/13 11:21:01;;;;;;;1.63;1.52;;;;;;;;;;5099463;27;87862;-63
2022/07/13 11:26:18;;;;;;;1.70;1.60;;;;;;;;;;5079985;27;88653;-63
2022/07/13 11:28:55;;;;;;;1.70;1.60;;;;;;;;;;5079521;27;87731;-63
2022/07/13 11:31:21;;;;;;;1.67;1.58;;;;;;;;;;5079347;27;87943;-62
2022/07/13 11:33:49;;;;;;;1.98;1.75;;;;;;;;;;5098758;27;86840;-63
2022/07/13 11:36:23;;;;;;;1.77;1.50;;;;;;;;;;5100143;27;88960;-63
2022/07/13 11:38:58;;;;;;;1.90;1.48;;;;;;;;;;5103489;27;88013;-62
2022/07/13 11:41:24;;;;;;;1.80;1.60;;;;;;;;;;5099848;27;87680;-63
2022/07/13 11:43:51;;;;;;;1.80;1.70;;;;;;;;;;5099726;27;86820;-63
2022/07/13 11:46:24;;;;;;;1.80;1.70;;;;;;;;;;5086712;27;88813;-62
2022/07/13 11:49:03;;;;;;;2.28;1.75;;;;;;;;;;5081189;27;87920;-63
2022/07/13 11:51:30;;;;;;;2.03;1.80;;;;;;;;;;5099404;27;90041;-62
2022/07/13 11:54:09;;;;;;;1.75;1.60;;;;;;;;;;5098738;27;88016;-62
2022/07/13 11:56:44;;;;;;;1.42;1.33;;;;;;;;;;5098034;27;89223;-62
2022/07/13 11:59:11;;;;;;;1.42;1.33;;;;;;;;;;5101360;27;89884;-63
2022/07/13 12:01:37;;;;;;;2.28;1.70;;;;;;;;;;5099107;27;89113;-63
2022/07/13 12:04:05;;;;;;;3.97;1.55;;;;;;;;;;5098594;27;88839;-63
2022/07/13 12:06:32;;;;;;;1.90;1.75;;;;;;;;;;5081239;27;89217;-62
2022/07/13 12:08:58;;;;;;;1.88;1.60;;;;;;;;;;5077557;27;87956;-64
2022/07/13 12:11:25;;;;;;;1.98;1.30;;;;;;;;;;5077733;27;89262;-63
2022/07/13 12:13:51;;;;;;;2.22;1.45;;;;;;;;;;5078853;27;88459;-63
2022/07/13 12:16:18;;;;;;;1.67;1.50;;;;;;;;;;5078054;27;88001;-63
2022/07/13 12:19:04;;;;;;;1.75;1.52;;;;;;;;;;5077878;27;88732;-63
2022/07/13 12:21:31;;;;;;;2.38;1.50;;;;;;;;;;5082336;27;89771;-63
2022/07/13 12:23:58;;;;;;;2.05;1.60;;;;;;;;;;5081707;27;91032;-63
2022/07/13 12:26:26;;;;;;;1.85;1.50;;;;;;;;;;5081698;27;89918;-63
2022/07/13 12:28:52;;;;;;;2.33;1.77;;;;;;;;;;5081522;27;88013;-63
2022/07/13 12:31:20;;;;;;;1.60;1.50;;;;;;;;;;5081564;27;89882;-63
2022/07/13 12:33:47;;;;;;;4.80;1.55;;;;;;;;;;5080691;27;88878;-63
2022/07/13 12:36:14;;;;;;;1.40;1.30;;;;;;;;;;5081183;27;88967;-63
2022/07/13 12:39:00;;;;;;;1.73;1.50;;;;;;;;;;5081564;27;88855;-63
2022/07/13 12:41:31;;;;;;;1.48;1.38;;;;;;;;;;5080971;27;87990;-63
2022/07/13 12:43:59;;;;;;;1.60;1.50;;;;;;;;;;5066068;27;88034;-63
2022/07/13 12:46:25;;;;;;;1.92;1.48;;;;;;;;;;5080712;27;89750;-63
2022/07/13 12:49:02;;;;;;;1.77;1.55;;;;;;;;;;5080988;27;89154;-63
2022/07/13 12:51:44;;;;;;;1.67;1.58;;;;;;;;;;5080886;27;88784;-63
2022/07/13 12:54:12;;;;;;;1.83;1.63;;;;;;;;;;5080655;27;89039;-63
2022/07/13 12:56:46;;;;;;;3.17;1.50;;;;;;;;;;5080594;27;88003;-62
2022/07/13 12:59:15;;;;;;;1.58;1.48;;;;;;;;;;5081159;27;89834;-63
2022/07/13 13:01:41;;;;;;;2.05;1.45;;;;;;;;;;5080544;27;89001;-63
2022/07/13 13:04:11;;;;;;;1.30;1.20;;;;;;;;;;5081231;27;88043;-63
2022/07/13 13:06:40;;;;;;;1.23;1.13;;;;;;;;;;5083513;27;87983;-62
2022/07/13 13:09:11;;;;;;;1.70;1.60;;;;;;;;;;5080621;27;88044;-62
2022/07/13 13:11:39;;;;;;;2.00;1.40;;;;;;;;;;5080003;27;89336;-63
2022/07/13 13:14:06;;;;;;;1.60;1.50;;;;;;;;;;5080979;27;89958;-62
2022/07/13 13:16:32;;;;;;;1.40;1.30;;;;;;;;;;5080906;27;88059;-63
2022/07/13 13:18:59;;;;;;;1.40;1.30;;;;;;;;;;5080395;27;88808;-63
2022/07/13 13:21:26;;;;;;;1.85;1.40;;;;;;;;;;5080730;27;90195;-63
2022/07/13 13:23:52;;;;;;;1.58;1.48;;;;;;;;;;5080363;27;88076;-63
2022/07/13 13:26:18;;;;;;;2.38;1.65;;;;;;;;;;5080492;27;90184;-62
2022/07/13 13:31:43;;;;;;;3.05;1.50;;;;;;;;;;5080934;27;88248;-63
2022/07/13 13:34:10;;;;;;;1.27;1.25;;;;;;;;;;5079519;27;88980;-63
2022/07/13 13:36:46;;;;;;;2.67;1.52;;;;;;;;;;5079754;27;88866;-62
2022/07/13 13:39:12;;;;;;;1.38;1.33;;;;;;;;;;5081256;27;89292;-63
2022/07/13 13:41:38;;;;;;;1.15;1.15;;;;;;;;;;5089217;27;88957;-63
2022/07/13 13:44:05;;;;;;;3.78;1.55;;;;;;;;;;5088916;27;88204;-62
2022/07/13 13:46:31;;;;;;;1.50;1.40;;;;;;;;;;5086369;27;88804;-63
2022/07/13 13:48:58;;;;;;;1.25;1.25;;;;;;;;;;5094138;27;89359;-63
2022/07/13 13:51:24;;;;;;;1.83;1.40;;;;;;;;;;5103877;27;89450;-62
2022/07/13 13:54:10;;;;;;;1.30;1.27;;;;;;;;;;5101175;27;88287;-63
2022/07/13 13:56:37;;;;;;;1.48;1.38;;;;;;;;;;5093512;27;87893;-63
2022/07/13 13:59:03;;;;;;;1.60;1.50;;;;;;;;;;5080432;27;89962;-63
2022/07/13 14:01:29;;;;;;;1.27;1.20;;;;;;;;;;5078787;27;89829;-63
2022/07/13 14:03:56;;;;;;;1.50;1.40;;;;;;;;;;5079337;27;88040;-62
2022/07/13 14:06:23;;;;;;;2.67;1.50;;;;;;;;;;5080068;27;88950;-63
2022/07/13 14:08:50;;;;;;;1.40;1.30;;;;;;;;;;5079561;27;87948;-63
2022/07/13 14:11:19;;;;;;;1.35;1.25;;;;;;;;;;5082820;27;87873;-63
2022/07/13 14:13:55;;;;;;;1.10;1.10;;;;;;;;;;5088352;27;89020;-62
2022/07/13 14:16:21;;;;;;;1.42;1.33;;;;;;;;;;5088058;27;89654;-63
2022/07/13 14:18:48;;;;;;;1.80;1.40;;;;;;;;;;5080485;27;89736;-62
2022/07/13 14:21:14;;;;;;;1.40;1.30;;;;;;;;;;5079408;27;89093;-63
2022/07/13 14:23:41;;;;;;;1.42;1.33;;;;;;;;;;5079240;27;88111;-63
2022/07/13 14:26:27;;;;;;;1.30;1.20;;;;;;;;;;5078930;27;90091;-63
2022/07/13 14:28:53;;;;;;;1.33;1.27;;;;;;;;;;5079447;27;88886;-63
2022/07/13 14:31:19;;;;;;;1.73;1.60;;;;;;;;;;5079028;27;88012;-63
2022/07/13 14:33:46;;;;;;;1.45;1.33;;;;;;;;;;5082029;27;88602;-63
2022/07/13 14:36:12;;;;;;;1.55;1.17;;;;;;;;;;5079089;27;87991;-63
2022/07/13 14:38:38;;;;;;;1.40;1.30;;;;;;;;;;5079705;27;90248;-63
2022/07/13 14:41:11;;;;;;;1.95;1.40;;;;;;;;;;5061425;27;89193;-62
2022/07/13 14:43:37;;;;;;;1.30;1.30;;;;;;;;;;5079207;27;87694;-63
2022/07/13 14:46:03;;;;;;;2.05;1.42;;;;;;;;;;5079205;27;87940;-63
2022/07/13 14:48:31;;;;;;;1.50;1.40;;;;;;;;;;5079246;27;90278;-63
2022/07/13 14:51:15;;;;;;;1.50;1.30;;;;;;;;;;5078434;27;88761;-63
2022/07/13 14:53:42;;;;;;;1.15;1.15;;;;;;;;;;5078913;27;89847;-62
2022/07/13 14:56:09;;;;;;;1.45;1.10;;;;;;;;;;5081522;27;88933;-63
2022/07/13 14:58:35;;;;;;;2.65;1.50;;;;;;;;;;5078690;27;88463;-63